sensor_id;sensor_type;location;lat;lon;timestamp;P1;durP1;ratioP1;P2;durP2;ratioP2
55465;SDS011;41329;41.594;23.810;2023-07-20T00:01:45;7.97;;;7.55;;
55465;SDS011;41329;41.594;23.810;2023-07-20T00:04:11;9.75;;;8.98;;
55465;SDS011;41329;41.594;23.810;2023-07-20T00:06:37;8.98;;;8.23;;
55465;SDS011;41329;41.594;23.810;2023-07-20T00:09:08;8.93;;;8.38;;
55465;SDS011;41329;41.594;23.810;2023-07-20T00:11:35;9.02;;;8.30;;
55465;SDS011;41329;41.594;23.810;2023-07-20T00:14:02;7.65;;;7.18;;
55465;SDS011;41329;41.594;23.810;2023-07-20T00:16:29;8.55;;;7.75;;
55465;SDS011;41329;41.594;23.810;2023-07-20T00:18:54;8.43;;;7.72;;
55465;SDS011;41329;41.594;23.810;2023-07-20T00:21:19;7.80;;;7.25;;
55465;SDS011;41329;41.594;23.810;2023-07-20T00:23:45;7.80;;;7.28;;
55465;SDS011;41329;41.594;23.810;2023-07-20T00:26:10;8.07;;;7.60;;
55465;SDS011;41329;41.594;23.810;2023-07-20T00:28:35;8.60;;;8.10;;
55465;SDS011;41329;41.594;23.810;2023-07-20T00:31:01;8.57;;;7.93;;
55465;SDS011;41329;41.594;23.810;2023-07-20T00:33:28;9.20;;;8.50;;
55465;SDS011;41329;41.594;23.810;2023-07-20T00:35:53;8.80;;;8.20;;
55465;SDS011;41329;41.594;23.810;2023-07-20T00:38:18;9.52;;;8.93;;
55465;SDS011;41329;41.594;23.810;2023-07-20T00:40:44;10.70;;;10.00;;
55465;SDS011;41329;41.594;23.810;2023-07-20T00:43:09;10.15;;;9.55;;
55465;SDS011;41329;41.594;23.810;2023-07-20T00:45:35;9.55;;;8.65;;
55465;SDS011;41329;41.594;23.810;2023-07-20T00:48:02;9.02;;;7.90;;
55465;SDS011;41329;41.594;23.810;2023-07-20T00:50:28;9.80;;;9.20;;
55465;SDS011;41329;41.594;23.810;2023-07-20T00:52:55;8.95;;;8.35;;
55465;SDS011;41329;41.594;23.810;2023-07-20T00:55:21;9.73;;;9.13;;
55465;SDS011;41329;41.594;23.810;2023-07-20T00:57:48;10.35;;;9.55;;
55465;SDS011;41329;41.594;23.810;2023-07-20T01:00:14;9.45;;;8.60;;
55465;SDS011;41329;41.594;23.810;2023-07-20T01:02:40;8.35;;;7.85;;
55465;SDS011;41329;41.594;23.810;2023-07-20T01:05:05;9.07;;;8.32;;
55465;SDS011;41329;41.594;23.810;2023-07-20T01:15:08;8.70;;;8.20;;
55465;SDS011;41329;41.594;23.810;2023-07-20T01:17:34;8.48;;;8.07;;
55465;SDS011;41329;41.594;23.810;2023-07-20T01:20:00;9.45;;;8.95;;
55465;SDS011;41329;41.594;23.810;2023-07-20T01:25:21;10.02;;;9.18;;
55465;SDS011;41329;41.594;23.810;2023-07-20T01:33:53;10.77;;;9.82;;
55465;SDS011;41329;41.594;23.810;2023-07-20T01:36:21;10.48;;;9.88;;
55465;SDS011;41329;41.594;23.810;2023-07-20T01:38:49;10.52;;;9.88;;
55465;SDS011;41329;41.594;23.810;2023-07-20T01:41:16;8.55;;;8.00;;
55465;SDS011;41329;41.594;23.810;2023-07-20T01:43:42;10.38;;;9.85;;
55465;SDS011;41329;41.594;23.810;2023-07-20T01:46:07;9.60;;;9.02;;
55465;SDS011;41329;41.594;23.810;2023-07-20T01:48:33;10.13;;;9.50;;
55465;SDS011;41329;41.594;23.810;2023-07-20T01:50:58;9.35;;;8.52;;
55465;SDS011;41329;41.594;23.810;2023-07-20T01:53:23;11.00;;;10.25;;
55465;SDS011;41329;41.594;23.810;2023-07-20T01:55:49;10.18;;;9.57;;
55465;SDS011;41329;41.594;23.810;2023-07-20T01:58:14;10.95;;;10.25;;
55465;SDS011;41329;41.594;23.810;2023-07-20T02:00:40;10.23;;;9.63;;
55465;SDS011;41329;41.594;23.810;2023-07-20T02:03:05;11.98;;;11.27;;
55465;SDS011;41329;41.594;23.810;2023-07-20T02:05:31;12.07;;;11.23;;
55465;SDS011;41329;41.594;23.810;2023-07-20T02:07:56;13.40;;;12.40;;
55465;SDS011;41329;41.594;23.810;2023-07-20T02:10:22;12.65;;;11.75;;
55465;SDS011;41329;41.594;23.810;2023-07-20T02:12:47;11.98;;;11.13;;
55465;SDS011;41329;41.594;23.810;2023-07-20T02:15:13;10.95;;;10.07;;
55465;SDS011;41329;41.594;23.810;2023-07-20T02:17:41;11.77;;;10.98;;
55465;SDS011;41329;41.594;23.810;2023-07-20T02:20:07;11.73;;;10.82;;
55465;SDS011;41329;41.594;23.810;2023-07-20T02:22:37;11.07;;;10.07;;
55465;SDS011;41329;41.594;23.810;2023-07-20T02:25:06;10.32;;;9.73;;
55465;SDS011;41329;41.594;23.810;2023-07-20T02:27:35;10.43;;;9.68;;
55465;SDS011;41329;41.594;23.810;2023-07-20T02:30:02;11.02;;;10.43;;
55465;SDS011;41329;41.594;23.810;2023-07-20T02:32:28;10.63;;;9.93;;
55465;SDS011;41329;41.594;23.810;2023-07-20T02:34:54;10.38;;;9.68;;
55465;SDS011;41329;41.594;23.810;2023-07-20T02:37:20;10.02;;;9.43;;
55465;SDS011;41329;41.594;23.810;2023-07-20T02:39:45;10.43;;;9.90;;
55465;SDS011;41329;41.594;23.810;2023-07-20T02:42:10;9.82;;;9.23;;
55465;SDS011;41329;41.594;23.810;2023-07-20T02:44:36;11.10;;;10.25;;
55465;SDS011;41329;41.594;23.810;2023-07-20T02:47:01;10.50;;;9.63;;
55465;SDS011;41329;41.594;23.810;2023-07-20T02:49:27;9.80;;;9.20;;
55465;SDS011;41329;41.594;23.810;2023-07-20T02:51:53;10.02;;;9.38;;
55465;SDS011;41329;41.594;23.810;2023-07-20T02:54:18;10.10;;;9.50;;
55465;SDS011;41329;41.594;23.810;2023-07-20T02:56:44;10.10;;;9.48;;
55465;SDS011;41329;41.594;23.810;2023-07-20T02:59:09;9.93;;;9.07;;
55465;SDS011;41329;41.594;23.810;2023-07-20T03:01:34;9.80;;;9.05;;
55465;SDS011;41329;41.594;23.810;2023-07-20T03:04:00;10.30;;;9.77;;
55465;SDS011;41329;41.594;23.810;2023-07-20T03:06:25;10.13;;;9.35;;
55465;SDS011;41329;41.594;23.810;2023-07-20T03:08:51;10.40;;;9.80;;
55465;SDS011;41329;41.594;23.810;2023-07-20T03:11:18;10.48;;;9.70;;
55465;SDS011;41329;41.594;23.810;2023-07-20T03:13:44;10.50;;;9.70;;
55465;SDS011;41329;41.594;23.810;2023-07-20T03:16:10;10.70;;;10.00;;
55465;SDS011;41329;41.594;23.810;2023-07-20T03:18:40;10.65;;;10.05;;
55465;SDS011;41329;41.594;23.810;2023-07-20T03:21:05;9.85;;;9.35;;
55465;SDS011;41329;41.594;23.810;2023-07-20T03:23:32;11.88;;;11.02;;
55465;SDS011;41329;41.594;23.810;2023-07-20T03:25:58;14.85;;;13.35;;
55465;SDS011;41329;41.594;23.810;2023-07-20T03:28:23;15.80;;;14.50;;
55465;SDS011;41329;41.594;23.810;2023-07-20T03:30:57;17.35;;;16.13;;
55465;SDS011;41329;41.594;23.810;2023-07-20T03:33:25;13.45;;;11.82;;
55465;SDS011;41329;41.594;23.810;2023-07-20T03:35:51;14.02;;;13.13;;
55465;SDS011;41329;41.594;23.810;2023-07-20T03:38:16;11.95;;;11.15;;
55465;SDS011;41329;41.594;23.810;2023-07-20T03:40:52;14.10;;;13.20;;
55465;SDS011;41329;41.594;23.810;2023-07-20T03:43:19;17.42;;;13.93;;
55465;SDS011;41329;41.594;23.810;2023-07-20T03:45:45;13.93;;;12.88;;
55465;SDS011;41329;41.594;23.810;2023-07-20T03:48:11;13.23;;;12.50;;
55465;SDS011;41329;41.594;23.810;2023-07-20T03:50:36;13.05;;;12.05;;
55465;SDS011;41329;41.594;23.810;2023-07-20T03:53:02;12.82;;;12.02;;
55465;SDS011;41329;41.594;23.810;2023-07-20T03:55:27;13.10;;;12.13;;
55465;SDS011;41329;41.594;23.810;2023-07-20T03:57:53;13.15;;;12.25;;
55465;SDS011;41329;41.594;23.810;2023-07-20T04:00:18;13.27;;;12.48;;
55465;SDS011;41329;41.594;23.810;2023-07-20T04:02:44;12.15;;;11.43;;
55465;SDS011;41329;41.594;23.810;2023-07-20T04:05:10;12.43;;;11.60;;
55465;SDS011;41329;41.594;23.810;2023-07-20T04:07:35;12.38;;;11.68;;
55465;SDS011;41329;41.594;23.810;2023-07-20T04:10:01;12.23;;;11.20;;
55465;SDS011;41329;41.594;23.810;2023-07-20T04:12:26;12.68;;;11.77;;
55465;SDS011;41329;41.594;23.810;2023-07-20T04:14:51;13.15;;;12.15;;
55465;SDS011;41329;41.594;23.810;2023-07-20T04:17:17;14.43;;;13.10;;
55465;SDS011;41329;41.594;23.810;2023-07-20T04:19:43;14.93;;;13.93;;
55465;SDS011;41329;41.594;23.810;2023-07-20T04:22:08;14.13;;;13.23;;
55465;SDS011;41329;41.594;23.810;2023-07-20T04:24:34;13.43;;;12.63;;
55465;SDS011;41329;41.594;23.810;2023-07-20T04:26:59;13.50;;;12.55;;
55465;SDS011;41329;41.594;23.810;2023-07-20T04:29:25;13.65;;;12.38;;
55465;SDS011;41329;41.594;23.810;2023-07-20T04:31:50;12.20;;;11.50;;
55465;SDS011;41329;41.594;23.810;2023-07-20T04:34:16;13.30;;;12.07;;
55465;SDS011;41329;41.594;23.810;2023-07-20T04:36:41;12.95;;;12.13;;
55465;SDS011;41329;41.594;23.810;2023-07-20T04:39:06;12.98;;;11.82;;
55465;SDS011;41329;41.594;23.810;2023-07-20T04:41:33;13.10;;;12.23;;
55465;SDS011;41329;41.594;23.810;2023-07-20T04:43:59;14.25;;;13.13;;
55465;SDS011;41329;41.594;23.810;2023-07-20T04:46:24;14.70;;;13.32;;
55465;SDS011;41329;41.594;23.810;2023-07-20T04:48:50;13.73;;;12.48;;
55465;SDS011;41329;41.594;23.810;2023-07-20T04:51:15;14.60;;;13.48;;
55465;SDS011;41329;41.594;23.810;2023-07-20T04:53:42;13.00;;;11.95;;
55465;SDS011;41329;41.594;23.810;2023-07-20T04:56:07;13.50;;;12.20;;
55465;SDS011;41329;41.594;23.810;2023-07-20T04:58:33;13.77;;;11.55;;
55465;SDS011;41329;41.594;23.810;2023-07-20T05:00:58;11.90;;;11.10;;
55465;SDS011;41329;41.594;23.810;2023-07-20T05:03:24;12.60;;;11.88;;
55465;SDS011;41329;41.594;23.810;2023-07-20T05:05:49;12.60;;;11.80;;
55465;SDS011;41329;41.594;23.810;2023-07-20T05:08:15;13.18;;;12.00;;
55465;SDS011;41329;41.594;23.810;2023-07-20T05:10:41;12.88;;;11.90;;
55465;SDS011;41329;41.594;23.810;2023-07-20T05:13:06;14.00;;;12.60;;
55465;SDS011;41329;41.594;23.810;2023-07-20T05:15:32;13.43;;;12.40;;
55465;SDS011;41329;41.594;23.810;2023-07-20T05:17:59;13.05;;;12.05;;
55465;SDS011;41329;41.594;23.810;2023-07-20T05:20:25;13.95;;;12.88;;
55465;SDS011;41329;41.594;23.810;2023-07-20T05:22:51;13.90;;;13.10;;
55465;SDS011;41329;41.594;23.810;2023-07-20T05:25:17;13.95;;;13.05;;
55465;SDS011;41329;41.594;23.810;2023-07-20T05:27:44;14.43;;;13.30;;
55465;SDS011;41329;41.594;23.810;2023-07-20T05:30:11;15.52;;;14.05;;
55465;SDS011;41329;41.594;23.810;2023-07-20T05:32:37;20.98;;;14.73;;
55465;SDS011;41329;41.594;23.810;2023-07-20T05:35:02;20.73;;;14.05;;
55465;SDS011;41329;41.594;23.810;2023-07-20T05:37:28;17.30;;;15.05;;
55465;SDS011;41329;41.594;23.810;2023-07-20T05:39:53;14.63;;;13.63;;
55465;SDS011;41329;41.594;23.810;2023-07-20T05:42:18;13.40;;;12.40;;
55465;SDS011;41329;41.594;23.810;2023-07-20T05:44:44;16.38;;;14.57;;
55465;SDS011;41329;41.594;23.810;2023-07-20T05:47:09;13.80;;;12.38;;
55465;SDS011;41329;41.594;23.810;2023-07-20T05:49:35;13.43;;;12.43;;
55465;SDS011;41329;41.594;23.810;2023-07-20T05:52:01;15.10;;;13.90;;
55465;SDS011;41329;41.594;23.810;2023-07-20T05:54:26;15.80;;;12.80;;
55465;SDS011;41329;41.594;23.810;2023-07-20T05:56:52;16.35;;;14.80;;
55465;SDS011;41329;41.594;23.810;2023-07-20T05:59:18;13.77;;;12.73;;
55465;SDS011;41329;41.594;23.810;2023-07-20T06:01:44;15.80;;;14.25;;
55465;SDS011;41329;41.594;23.810;2023-07-20T06:04:10;13.43;;;12.63;;
55465;SDS011;41329;41.594;23.810;2023-07-20T06:06:35;13.88;;;12.68;;
55465;SDS011;41329;41.594;23.810;2023-07-20T06:25:37;12.10;;;11.05;;
55465;SDS011;41329;41.594;23.810;2023-07-20T06:28:03;12.23;;;11.52;;
55465;SDS011;41329;41.594;23.810;2023-07-20T06:30:30;12.57;;;11.68;;
55465;SDS011;41329;41.594;23.810;2023-07-20T06:32:55;11.93;;;11.13;;
55465;SDS011;41329;41.594;23.810;2023-07-20T06:35:20;12.63;;;11.73;;
55465;SDS011;41329;41.594;23.810;2023-07-20T06:37:46;13.77;;;12.88;;
55465;SDS011;41329;41.594;23.810;2023-07-20T06:40:11;12.52;;;11.77;;
55465;SDS011;41329;41.594;23.810;2023-07-20T06:42:37;12.13;;;11.40;;
55465;SDS011;41329;41.594;23.810;2023-07-20T06:45:02;16.38;;;12.68;;
55465;SDS011;41329;41.594;23.810;2023-07-20T06:47:28;12.15;;;11.25;;
55465;SDS011;41329;41.594;23.810;2023-07-20T06:49:53;12.32;;;11.63;;
55465;SDS011;41329;41.594;23.810;2023-07-20T06:52:19;13.38;;;12.13;;
55465;SDS011;41329;41.594;23.810;2023-07-20T06:54:44;13.00;;;11.90;;
55465;SDS011;41329;41.594;23.810;2023-07-20T06:57:09;12.45;;;11.57;;
55465;SDS011;41329;41.594;23.810;2023-07-20T06:59:35;13.30;;;12.18;;
55465;SDS011;41329;41.594;23.810;2023-07-20T07:02:00;13.23;;;12.30;;
55465;SDS011;41329;41.594;23.810;2023-07-20T07:04:26;14.10;;;13.30;;
55465;SDS011;41329;41.594;23.810;2023-07-20T07:06:52;12.57;;;11.85;;
55465;SDS011;41329;41.594;23.810;2023-07-20T07:09:17;12.85;;;11.93;;
55465;SDS011;41329;41.594;23.810;2023-07-20T07:11:43;15.52;;;14.10;;
55465;SDS011;41329;41.594;23.810;2023-07-20T07:14:09;12.95;;;12.05;;
55465;SDS011;41329;41.594;23.810;2023-07-20T07:16:37;13.52;;;12.23;;
55465;SDS011;41329;41.594;23.810;2023-07-20T07:19:02;14.55;;;13.10;;
55465;SDS011;41329;41.594;23.810;2023-07-20T07:21:28;14.82;;;13.73;;
55465;SDS011;41329;41.594;23.810;2023-07-20T07:23:54;13.95;;;13.02;;
55465;SDS011;41329;41.594;23.810;2023-07-20T07:26:22;15.13;;;14.13;;
55465;SDS011;41329;41.594;23.810;2023-07-20T07:28:48;14.23;;;13.18;;
55465;SDS011;41329;41.594;23.810;2023-07-20T07:31:14;15.55;;;14.35;;
55465;SDS011;41329;41.594;23.810;2023-07-20T07:33:39;14.15;;;13.35;;
55465;SDS011;41329;41.594;23.810;2023-07-20T07:36:05;14.45;;;13.45;;
55465;SDS011;41329;41.594;23.810;2023-07-20T07:38:31;14.77;;;13.80;;
55465;SDS011;41329;41.594;23.810;2023-07-20T07:40:57;13.85;;;12.95;;
55465;SDS011;41329;41.594;23.810;2023-07-20T07:43:23;14.98;;;13.63;;
55465;SDS011;41329;41.594;23.810;2023-07-20T07:45:48;14.40;;;13.20;;
55465;SDS011;41329;41.594;23.810;2023-07-20T07:48:14;14.52;;;13.32;;
55465;SDS011;41329;41.594;23.810;2023-07-20T07:50:39;13.38;;;12.20;;
55465;SDS011;41329;41.594;23.810;2023-07-20T07:53:05;12.27;;;11.48;;
55465;SDS011;41329;41.594;23.810;2023-07-20T07:55:31;12.63;;;12.02;;
55465;SDS011;41329;41.594;23.810;2023-07-20T07:57:56;11.57;;;10.98;;
55465;SDS011;41329;41.594;23.810;2023-07-20T08:00:21;12.50;;;11.70;;
55465;SDS011;41329;41.594;23.810;2023-07-20T08:02:47;12.20;;;11.27;;
55465;SDS011;41329;41.594;23.810;2023-07-20T08:05:15;10.75;;;10.15;;
55465;SDS011;41329;41.594;23.810;2023-07-20T08:07:41;10.27;;;9.55;;
55465;SDS011;41329;41.594;23.810;2023-07-20T08:10:06;10.13;;;9.38;;
55465;SDS011;41329;41.594;23.810;2023-07-20T08:12:32;10.38;;;9.88;;
55465;SDS011;41329;41.594;23.810;2023-07-20T08:14:58;9.32;;;8.80;;
55465;SDS011;41329;41.594;23.810;2023-07-20T08:17:23;9.45;;;8.75;;
55465;SDS011;41329;41.594;23.810;2023-07-20T08:19:49;9.80;;;9.20;;
55465;SDS011;41329;41.594;23.810;2023-07-20T08:22:14;9.52;;;8.98;;
55465;SDS011;41329;41.594;23.810;2023-07-20T08:24:40;10.38;;;9.20;;
55465;SDS011;41329;41.594;23.810;2023-07-20T08:27:07;10.13;;;9.63;;
55465;SDS011;41329;41.594;23.810;2023-07-20T08:29:33;9.40;;;8.90;;
55465;SDS011;41329;41.594;23.810;2023-07-20T08:31:59;9.48;;;8.57;;
55465;SDS011;41329;41.594;23.810;2023-07-20T08:34:25;10.65;;;9.88;;
55465;SDS011;41329;41.594;23.810;2023-07-20T08:36:50;10.15;;;9.20;;
55465;SDS011;41329;41.594;23.810;2023-07-20T08:39:16;9.43;;;8.93;;
55465;SDS011;41329;41.594;23.810;2023-07-20T08:41:42;9.98;;;9.27;;
55465;SDS011;41329;41.594;23.810;2023-07-20T08:44:08;11.32;;;9.52;;
55465;SDS011;41329;41.594;23.810;2023-07-20T08:46:35;9.98;;;9.10;;
55465;SDS011;41329;41.594;23.810;2023-07-20T08:49:06;8.88;;;8.43;;
55465;SDS011;41329;41.594;23.810;2023-07-20T08:51:32;10.15;;;9.23;;
55465;SDS011;41329;41.594;23.810;2023-07-20T08:53:58;10.73;;;9.65;;
55465;SDS011;41329;41.594;23.810;2023-07-20T09:08:07;8.82;;;8.32;;
55465;SDS011;41329;41.594;23.810;2023-07-20T09:10:32;8.70;;;8.15;;
55465;SDS011;41329;41.594;23.810;2023-07-20T09:12:57;7.50;;;7.10;;
55465;SDS011;41329;41.594;23.810;2023-07-20T09:15:23;8.13;;;7.35;;
55465;SDS011;41329;41.594;23.810;2023-07-20T09:17:49;8.10;;;7.50;;
55465;SDS011;41329;41.594;23.810;2023-07-20T09:20:16;8.18;;;7.60;;
55465;SDS011;41329;41.594;23.810;2023-07-20T09:22:42;7.88;;;7.38;;
55465;SDS011;41329;41.594;23.810;2023-07-20T09:25:15;8.23;;;7.60;;
55465;SDS011;41329;41.594;23.810;2023-07-20T09:27:42;7.55;;;7.15;;
55465;SDS011;41329;41.594;23.810;2023-07-20T09:30:09;8.02;;;7.63;;
55465;SDS011;41329;41.594;23.810;2023-07-20T09:32:41;7.80;;;7.25;;
55465;SDS011;41329;41.594;23.810;2023-07-20T09:35:17;8.02;;;7.47;;
55465;SDS011;41329;41.594;23.810;2023-07-20T09:37:50;7.28;;;6.72;;
55465;SDS011;41329;41.594;23.810;2023-07-20T09:40:19;7.43;;;6.95;;
55465;SDS011;41329;41.594;23.810;2023-07-20T09:42:45;8.13;;;7.63;;
55465;SDS011;41329;41.594;23.810;2023-07-20T09:45:11;7.95;;;7.28;;
55465;SDS011;41329;41.594;23.810;2023-07-20T09:47:37;8.32;;;7.93;;
55465;SDS011;41329;41.594;23.810;2023-07-20T09:50:03;7.65;;;7.15;;
55465;SDS011;41329;41.594;23.810;2023-07-20T09:52:30;7.68;;;7.25;;
55465;SDS011;41329;41.594;23.810;2023-07-20T09:54:56;8.38;;;7.13;;
55465;SDS011;41329;41.594;23.810;2023-07-20T09:57:22;7.78;;;7.38;;
55465;SDS011;41329;41.594;23.810;2023-07-20T09:59:48;7.47;;;7.07;;
55465;SDS011;41329;41.594;23.810;2023-07-20T10:02:20;7.78;;;7.28;;
55465;SDS011;41329;41.594;23.810;2023-07-20T10:04:49;7.60;;;7.03;;
55465;SDS011;41329;41.594;23.810;2023-07-20T10:07:18;7.47;;;7.07;;
55465;SDS011;41329;41.594;23.810;2023-07-20T10:09:46;7.93;;;7.10;;
55465;SDS011;41329;41.594;23.810;2023-07-20T10:12:13;7.15;;;6.75;;
55465;SDS011;41329;41.594;23.810;2023-07-20T10:14:41;6.95;;;6.65;;
55465;SDS011;41329;41.594;23.810;2023-07-20T10:17:12;7.47;;;7.05;;
55465;SDS011;41329;41.594;23.810;2023-07-20T10:19:43;7.88;;;7.35;;
55465;SDS011;41329;41.594;23.810;2023-07-20T10:22:13;8.20;;;7.60;;
55465;SDS011;41329;41.594;23.810;2023-07-20T10:24:44;7.38;;;6.88;;
55465;SDS011;41329;41.594;23.810;2023-07-20T10:27:12;7.50;;;6.97;;
55465;SDS011;41329;41.594;23.810;2023-07-20T10:29:39;7.43;;;6.90;;
55465;SDS011;41329;41.594;23.810;2023-07-20T10:32:06;7.50;;;6.70;;
55465;SDS011;41329;41.594;23.810;2023-07-20T10:34:33;7.13;;;6.60;;
55465;SDS011;41329;41.594;23.810;2023-07-20T10:36:58;7.18;;;6.57;;
55465;SDS011;41329;41.594;23.810;2023-07-20T10:39:24;8.93;;;6.93;;
55465;SDS011;41329;41.594;23.810;2023-07-20T10:42:02;6.80;;;6.20;;
55465;SDS011;41329;41.594;23.810;2023-07-20T10:44:31;6.18;;;5.78;;
55465;SDS011;41329;41.594;23.810;2023-07-20T10:47:03;6.13;;;5.63;;
55465;SDS011;41329;41.594;23.810;2023-07-20T10:49:33;5.72;;;5.43;;
55465;SDS011;41329;41.594;23.810;2023-07-20T10:52:03;6.53;;;6.20;;
55465;SDS011;41329;41.594;23.810;2023-07-20T10:56:55;6.18;;;5.88;;
55465;SDS011;41329;41.594;23.810;2023-07-20T11:01:54;6.95;;;6.50;;
55465;SDS011;41329;41.594;23.810;2023-07-20T11:04:37;6.10;;;5.60;;
55465;SDS011;41329;41.594;23.810;2023-07-20T11:07:04;6.18;;;5.78;;
55465;SDS011;41329;41.594;23.810;2023-07-20T11:09:33;6.00;;;5.70;;
55465;SDS011;41329;41.594;23.810;2023-07-20T11:12:15;5.82;;;5.43;;
55465;SDS011;41329;41.594;23.810;2023-07-20T11:14:55;6.60;;;6.13;;
55465;SDS011;41329;41.594;23.810;2023-07-20T11:17:28;6.25;;;5.57;;
55465;SDS011;41329;41.594;23.810;2023-07-20T11:19:55;7.55;;;6.05;;
55465;SDS011;41329;41.594;23.810;2023-07-20T11:22:22;6.75;;;6.05;;
55465;SDS011;41329;41.594;23.810;2023-07-20T11:24:47;7.13;;;5.75;;
55465;SDS011;41329;41.594;23.810;2023-07-20T11:27:14;6.30;;;5.90;;
55465;SDS011;41329;41.594;23.810;2023-07-20T11:29:40;6.13;;;5.47;;
55465;SDS011;41329;41.594;23.810;2023-07-20T11:32:05;6.00;;;5.50;;
55465;SDS011;41329;41.594;23.810;2023-07-20T11:34:32;6.13;;;5.72;;
55465;SDS011;41329;41.594;23.810;2023-07-20T11:36:58;6.75;;;5.82;;
55465;SDS011;41329;41.594;23.810;2023-07-20T11:39:24;6.57;;;6.15;;
55465;SDS011;41329;41.594;23.810;2023-07-20T11:41:51;6.35;;;5.60;;
55465;SDS011;41329;41.594;23.810;2023-07-20T11:44:18;6.47;;;5.90;;
55465;SDS011;41329;41.594;23.810;2023-07-20T11:46:46;6.28;;;5.78;;
55465;SDS011;41329;41.594;23.810;2023-07-20T11:49:11;6.13;;;5.60;;
55465;SDS011;41329;41.594;23.810;2023-07-20T11:51:38;6.22;;;5.72;;
55465;SDS011;41329;41.594;23.810;2023-07-20T11:54:05;6.43;;;5.93;;
55465;SDS011;41329;41.594;23.810;2023-07-20T11:56:32;6.25;;;5.32;;
55465;SDS011;41329;41.594;23.810;2023-07-20T11:58:58;7.13;;;5.68;;
55465;SDS011;41329;41.594;23.810;2023-07-20T12:01:25;8.02;;;5.72;;
55465;SDS011;41329;41.594;23.810;2023-07-20T12:03:57;7.78;;;5.65;;
55465;SDS011;41329;41.594;23.810;2023-07-20T12:06:24;5.80;;;5.47;;
55465;SDS011;41329;41.594;23.810;2023-07-20T12:08:51;6.15;;;5.55;;
55465;SDS011;41329;41.594;23.810;2023-07-20T12:11:31;6.63;;;6.03;;
55465;SDS011;41329;41.594;23.810;2023-07-20T12:14:00;6.07;;;5.68;;
55465;SDS011;41329;41.594;23.810;2023-07-20T12:16:28;9.23;;;6.22;;
55465;SDS011;41329;41.594;23.810;2023-07-20T12:19:11;6.97;;;6.47;;
55465;SDS011;41329;41.594;23.810;2023-07-20T12:21:37;6.88;;;6.18;;
55465;SDS011;41329;41.594;23.810;2023-07-20T12:24:05;6.68;;;6.05;;
55465;SDS011;41329;41.594;23.810;2023-07-20T12:26:31;9.50;;;8.60;;
55465;SDS011;41329;41.594;23.810;2023-07-20T12:28:58;6.10;;;5.70;;
55465;SDS011;41329;41.594;23.810;2023-07-20T12:31:24;6.20;;;5.57;;
55465;SDS011;41329;41.594;23.810;2023-07-20T12:33:50;6.55;;;5.28;;
55465;SDS011;41329;41.594;23.810;2023-07-20T12:36:17;6.75;;;5.45;;
55465;SDS011;41329;41.594;23.810;2023-07-20T12:38:43;7.32;;;5.43;;
55465;SDS011;41329;41.594;23.810;2023-07-20T12:41:09;6.35;;;5.68;;
55465;SDS011;41329;41.594;23.810;2023-07-20T12:43:39;6.43;;;5.22;;
55465;SDS011;41329;41.594;23.810;2023-07-20T12:46:07;6.25;;;5.72;;
55465;SDS011;41329;41.594;23.810;2023-07-20T12:48:34;6.78;;;5.05;;
55465;SDS011;41329;41.594;23.810;2023-07-20T12:51:02;9.63;;;5.50;;
55465;SDS011;41329;41.594;23.810;2023-07-20T12:53:28;7.47;;;5.32;;
55465;SDS011;41329;41.594;23.810;2023-07-20T12:55:54;10.10;;;5.35;;
55465;SDS011;41329;41.594;23.810;2023-07-20T12:58:19;5.30;;;4.90;;
55465;SDS011;41329;41.594;23.810;2023-07-20T13:00:44;7.47;;;5.50;;
55465;SDS011;41329;41.594;23.810;2023-07-20T13:03:10;5.95;;;5.55;;
55465;SDS011;41329;41.594;23.810;2023-07-20T13:05:35;5.30;;;4.88;;
55465;SDS011;41329;41.594;23.810;2023-07-20T13:08:01;6.53;;;5.05;;
55465;SDS011;41329;41.594;23.810;2023-07-20T13:10:27;6.30;;;5.68;;
55465;SDS011;41329;41.594;23.810;2023-07-20T13:12:54;5.55;;;5.05;;
55465;SDS011;41329;41.594;23.810;2023-07-20T13:15:19;8.90;;;5.82;;
55465;SDS011;41329;41.594;23.810;2023-07-20T13:17:45;8.82;;;5.32;;
55465;SDS011;41329;41.594;23.810;2023-07-20T13:20:11;9.13;;;5.72;;
55465;SDS011;41329;41.594;23.810;2023-07-20T13:22:40;5.72;;;5.07;;
55465;SDS011;41329;41.594;23.810;2023-07-20T13:25:06;5.35;;;4.95;;
55465;SDS011;41329;41.594;23.810;2023-07-20T13:27:32;5.70;;;5.30;;
55465;SDS011;41329;41.594;23.810;2023-07-20T13:29:58;8.38;;;5.30;;
55465;SDS011;41329;41.594;23.810;2023-07-20T13:32:26;6.53;;;5.43;;
55465;SDS011;41329;41.594;23.810;2023-07-20T13:34:52;12.90;;;5.97;;
55465;SDS011;41329;41.594;23.810;2023-07-20T13:37:17;8.10;;;5.45;;
55465;SDS011;41329;41.594;23.810;2023-07-20T13:39:43;5.88;;;5.10;;
55465;SDS011;41329;41.594;23.810;2023-07-20T13:42:08;6.93;;;4.97;;
55465;SDS011;41329;41.594;23.810;2023-07-20T13:44:36;9.60;;;5.40;;
55465;SDS011;41329;41.594;23.810;2023-07-20T13:47:02;5.82;;;5.32;;
55465;SDS011;41329;41.594;23.810;2023-07-20T13:49:28;11.55;;;5.88;;
55465;SDS011;41329;41.594;23.810;2023-07-20T13:51:53;6.40;;;5.80;;
55465;SDS011;41329;41.594;23.810;2023-07-20T13:54:19;10.48;;;6.22;;
55465;SDS011;41329;41.594;23.810;2023-07-20T13:56:44;5.80;;;5.03;;
55465;SDS011;41329;41.594;23.810;2023-07-20T13:59:09;5.75;;;5.13;;
55465;SDS011;41329;41.594;23.810;2023-07-20T14:01:35;17.83;;;6.25;;
55465;SDS011;41329;41.594;23.810;2023-07-20T14:04:00;7.20;;;5.65;;
55465;SDS011;41329;41.594;23.810;2023-07-20T14:06:29;7.70;;;5.50;;
55465;SDS011;41329;41.594;23.810;2023-07-20T14:08:55;6.65;;;5.60;;
55465;SDS011;41329;41.594;23.810;2023-07-20T14:11:22;7.22;;;6.20;;
55465;SDS011;41329;41.594;23.810;2023-07-20T14:13:48;8.10;;;5.18;;
55465;SDS011;41329;41.594;23.810;2023-07-20T14:19:05;13.85;;;12.57;;
55465;SDS011;41329;41.594;23.810;2023-07-20T14:21:30;17.88;;;16.30;;
55465;SDS011;41329;41.594;23.810;2023-07-20T14:23:56;9.20;;;8.63;;
55465;SDS011;41329;41.594;23.810;2023-07-20T14:26:25;13.98;;;6.65;;
55465;SDS011;41329;41.594;23.810;2023-07-20T14:28:50;5.97;;;5.43;;
55465;SDS011;41329;41.594;23.810;2023-07-20T14:31:16;10.63;;;6.55;;
55465;SDS011;41329;41.594;23.810;2023-07-20T14:33:41;6.80;;;6.25;;
55465;SDS011;41329;41.594;23.810;2023-07-20T14:36:07;6.40;;;5.50;;
55465;SDS011;41329;41.594;23.810;2023-07-20T14:38:33;8.65;;;6.60;;
55465;SDS011;41329;41.594;23.810;2023-07-20T14:40:59;11.60;;;5.68;;
55465;SDS011;41329;41.594;23.810;2023-07-20T14:43:24;12.40;;;5.53;;
55465;SDS011;41329;41.594;23.810;2023-07-20T14:45:50;5.30;;;4.90;;
55465;SDS011;41329;41.594;23.810;2023-07-20T14:48:15;8.35;;;5.95;;
55465;SDS011;41329;41.594;23.810;2023-07-20T14:50:41;7.43;;;5.65;;
55465;SDS011;41329;41.594;23.810;2023-07-20T14:53:07;6.38;;;5.45;;
55465;SDS011;41329;41.594;23.810;2023-07-20T14:55:33;9.07;;;5.10;;
55465;SDS011;41329;41.594;23.810;2023-07-20T14:57:59;7.80;;;5.07;;
55465;SDS011;41329;41.594;23.810;2023-07-20T15:00:24;8.90;;;5.13;;
55465;SDS011;41329;41.594;23.810;2023-07-20T15:02:50;7.30;;;5.55;;
55465;SDS011;41329;41.594;23.810;2023-07-20T15:05:20;7.10;;;5.32;;
55465;SDS011;41329;41.594;23.810;2023-07-20T15:07:49;5.95;;;5.35;;
55465;SDS011;41329;41.594;23.810;2023-07-20T15:10:15;7.57;;;5.35;;
55465;SDS011;41329;41.594;23.810;2023-07-20T15:12:40;8.15;;;4.72;;